createdAt,value
2019-05-18T00:01:58.464Z,5.07
2019-05-18T00:04:25.804Z,5.00
2019-05-18T00:06:52.975Z,4.43
2019-05-18T00:09:20.136Z,4.70
2019-05-18T00:11:47.358Z,4.00
2019-05-18T00:14:14.490Z,4.30
2019-05-18T00:16:42.310Z,3.70
2019-05-18T00:19:09.526Z,4.13
2019-05-18T00:21:36.621Z,4.13
2019-05-18T00:24:03.772Z,4.10
2019-05-18T00:26:31.197Z,4.00
2019-05-18T00:28:58.344Z,4.20
2019-05-18T00:31:25.525Z,4.00
2019-05-18T00:33:52.701Z,4.00
2019-05-18T00:36:19.950Z,4.40
2019-05-18T00:38:47.170Z,4.37
2019-05-18T00:41:14.401Z,4.40
2019-05-18T00:43:41.545Z,4.70
2019-05-18T00:46:08.728Z,4.70
2019-05-18T00:48:35.912Z,5.00
2019-05-18T00:51:03.014Z,4.80
2019-05-18T00:53:30.151Z,4.33
2019-05-18T00:55:57.350Z,5.00
2019-05-18T00:58:24.515Z,5.07
2019-05-18T01:00:51.675Z,5.00
2019-05-18T01:03:18.863Z,5.50
2019-05-18T01:05:45.911Z,5.00
2019-05-18T01:08:13.012Z,5.23
2019-05-18T01:10:40.489Z,6.17
2019-05-18T01:13:07.676Z,5.83
2019-05-18T01:15:35.163Z,6.23
2019-05-18T01:18:02.609Z,5.73
2019-05-18T01:20:29.685Z,5.80
2019-05-18T01:22:57.262Z,5.50
2019-05-18T01:25:24.549Z,6.00
2019-05-18T01:27:51.977Z,6.03
2019-05-18T01:30:20.132Z,5.83
2019-05-18T01:32:47.529Z,5.90
2019-05-18T01:35:14.695Z,5.60
2019-05-18T01:37:42.187Z,5.87
2019-05-18T01:40:10.298Z,5.30
2019-05-18T01:42:37.473Z,5.10
2019-05-18T01:45:16.280Z,6.40
2019-05-18T01:47:34.011Z,5.10
2019-05-18T01:50:01.059Z,6.30
2019-05-18T01:52:28.207Z,5.53
2019-05-18T01:54:55.634Z,5.83
2019-05-18T01:57:22.825Z,6.60
2019-05-18T01:59:49.949Z,6.50
2019-05-18T02:02:17.131Z,6.17
2019-05-18T02:04:44.277Z,6.83
2019-05-18T02:07:11.439Z,6.37
2019-05-18T02:09:38.621Z,6.90
2019-05-18T02:12:05.832Z,6.60
2019-05-18T02:14:33.015Z,6.63
2019-05-18T02:17:00.193Z,7.30
2019-05-18T02:19:27.376Z,7.10
2019-05-18T02:21:54.927Z,6.80
2019-05-18T02:24:22.104Z,7.57
2019-05-18T02:26:49.240Z,7.20
2019-05-18T02:29:16.394Z,7.80
2019-05-18T02:31:43.584Z,7.27
2019-05-18T02:34:10.772Z,6.47
2019-05-18T02:36:37.830Z,7.80
2019-05-18T02:39:06.122Z,7.83
2019-05-18T02:41:33.320Z,7.90
2019-05-18T02:44:00.568Z,7.93
2019-05-18T02:46:27.741Z,7.97
2019-05-18T02:48:54.902Z,7.27
2019-05-18T02:51:22.032Z,8.07
2019-05-18T02:53:49.240Z,8.13
2019-05-18T02:56:16.414Z,8.50
2019-05-18T02:58:43.679Z,7.77
2019-05-18T03:01:10.882Z,9.50
2019-05-18T03:03:38.369Z,9.53
2019-05-18T03:06:05.530Z,8.30
2019-05-18T03:08:32.893Z,7.53
2019-05-18T03:11:00.076Z,6.93
2019-05-18T03:13:27.276Z,6.87
2019-05-18T03:15:54.735Z,6.97
2019-05-18T03:18:21.881Z,7.93
2019-05-18T03:20:48.976Z,8.30
2019-05-18T03:23:16.596Z,9.03
2019-05-18T03:25:44.053Z,10.00
2019-05-18T03:28:11.297Z,10.63
2019-05-18T03:30:38.492Z,10.77
2019-05-18T03:33:05.808Z,10.53
2019-05-18T03:35:33.060Z,10.47
2019-05-18T03:38:00.251Z,10.83
2019-05-18T03:40:27.412Z,11.07
2019-05-18T03:42:54.605Z,10.33
2019-05-18T03:45:21.940Z,11.00
2019-05-18T03:47:49.004Z,11.43
2019-05-18T03:50:16.189Z,10.73
2019-05-18T03:52:43.361Z,9.93
2019-05-18T03:55:10.586Z,10.37
2019-05-18T03:57:37.796Z,10.23
2019-05-18T04:00:05.433Z,9.80
2019-05-18T04:02:32.628Z,9.90
2019-05-18T04:04:59.782Z,10.47
2019-05-18T04:07:26.980Z,10.90
2019-05-18T04:09:54.431Z,10.00
2019-05-18T04:12:21.673Z,10.03
2019-05-18T04:14:48.936Z,8.73
2019-05-18T04:17:16.141Z,8.37
2019-05-18T04:19:46.845Z,7.87
2019-05-18T04:22:13.539Z,8.40
2019-05-18T04:24:41.383Z,9.47
2019-05-18T04:27:09.658Z,8.40
2019-05-18T04:29:36.931Z,9.70
2019-05-18T04:32:04.039Z,9.30
2019-05-18T04:34:31.253Z,8.93
2019-05-18T04:36:58.452Z,10.47
2019-05-18T04:39:25.956Z,9.97
2019-05-18T04:41:55.043Z,9.87
2019-05-18T04:44:22.739Z,9.93
2019-05-18T04:46:51.537Z,9.80
2019-05-18T04:49:19.666Z,9.53
2019-05-18T04:51:47.150Z,11.37
2019-05-18T04:54:14.578Z,10.43
2019-05-18T04:56:43.172Z,10.00
2019-05-18T04:59:10.833Z,10.33
2019-05-18T05:01:38.725Z,10.70
2019-05-18T05:04:06.382Z,10.10
2019-05-18T05:06:34.680Z,10.17
2019-05-18T05:09:02.374Z,10.00
2019-05-18T05:11:29.740Z,10.07
2019-05-18T05:13:58.881Z,9.67
2019-05-18T05:16:31.025Z,9.40
2019-05-18T05:19:01.081Z,9.57
2019-05-18T05:21:30.901Z,9.50
2019-05-18T05:23:58.690Z,9.03
2019-05-18T05:26:26.043Z,9.93
2019-05-18T05:28:53.758Z,9.37
2019-05-18T05:31:21.146Z,8.70
2019-05-18T05:33:48.637Z,9.10
2019-05-18T05:36:16.184Z,9.20
2019-05-18T05:38:44.476Z,9.47
2019-05-18T05:41:16.483Z,9.17
2019-05-18T05:43:46.817Z,8.73
2019-05-18T05:46:14.673Z,9.47
2019-05-18T05:48:42.100Z,8.23
2019-05-18T05:51:09.318Z,9.00
2019-05-18T05:53:36.585Z,7.93
2019-05-18T05:56:03.867Z,7.80
2019-05-18T05:58:31.103Z,7.53
2019-05-18T06:00:58.880Z,7.60
2019-05-18T06:03:26.196Z,8.00
2019-05-18T06:05:53.516Z,7.70
2019-05-18T06:08:20.992Z,6.97
2019-05-18T06:10:48.170Z,6.70
2019-05-18T06:13:15.892Z,7.00
2019-05-18T06:15:43.282Z,7.00
2019-05-18T06:18:10.847Z,7.37
2019-05-18T06:20:50.355Z,6.83
2019-05-18T06:23:07.870Z,7.83
2019-05-18T06:25:35.806Z,6.30
2019-05-18T06:28:03.243Z,6.60
2019-05-18T06:30:30.593Z,7.00
2019-05-18T06:32:57.855Z,6.40
2019-05-18T06:35:25.222Z,6.20
2019-05-18T06:37:52.596Z,6.60
2019-05-18T06:40:19.820Z,6.63
2019-05-18T06:42:48.478Z,7.07
2019-05-18T06:45:15.718Z,6.73
2019-05-18T06:47:42.818Z,6.77
2019-05-18T06:50:12.577Z,6.60
2019-05-18T06:52:39.384Z,6.80
2019-05-18T06:55:06.728Z,7.70
2019-05-18T06:57:34.472Z,6.67
2019-05-18T07:00:02.265Z,7.20
2019-05-18T07:02:29.720Z,6.90
2019-05-18T07:04:57.066Z,6.53
2019-05-18T07:07:24.288Z,6.23
2019-05-18T07:09:51.514Z,6.60
2019-05-18T07:12:20.132Z,6.40
2019-05-18T07:14:47.536Z,6.80
2019-05-18T07:17:15.423Z,6.40
2019-05-18T07:19:42.973Z,6.73
2019-05-18T07:22:10.420Z,6.37
2019-05-18T07:24:37.688Z,6.57
2019-05-18T07:27:04.992Z,6.73
2019-05-18T07:29:32.194Z,6.97
2019-05-18T07:32:00.041Z,6.20
2019-05-18T07:34:27.337Z,6.37
2019-05-18T07:36:55.054Z,5.90
2019-05-18T07:39:22.333Z,6.00
2019-05-18T07:41:49.640Z,6.10
2019-05-18T07:44:16.968Z,6.20
2019-05-18T07:46:44.358Z,6.10
2019-05-18T07:49:13.654Z,5.37
2019-05-18T07:51:41.634Z,5.07
2019-05-18T07:54:09.693Z,5.30
2019-05-18T07:56:37.235Z,5.83
2019-05-18T07:59:04.821Z,6.40
2019-05-18T08:01:32.218Z,5.90
2019-05-18T08:03:59.561Z,5.00
2019-05-18T08:06:27.275Z,5.07
2019-05-18T08:08:54.864Z,5.03
2019-05-18T08:11:22.128Z,4.77
2019-05-18T08:13:49.620Z,5.10
2019-05-18T08:16:17.150Z,4.37
2019-05-18T08:18:44.426Z,5.13
2019-05-18T08:21:11.643Z,4.33
2019-05-18T08:23:39.259Z,4.40
2019-05-18T08:26:06.742Z,3.77
2019-05-18T08:28:34.246Z,3.37
2019-05-18T08:31:02.643Z,3.72
2019-05-18T08:33:29.925Z,3.10
2019-05-18T08:35:57.164Z,3.35
2019-05-18T08:38:25.040Z,2.40
2019-05-18T08:40:52.283Z,2.40
2019-05-18T08:43:20.131Z,2.83
2019-05-18T08:45:47.367Z,2.05
2019-05-18T08:48:15.585Z,2.52
2019-05-18T08:50:42.965Z,2.00
2019-05-18T08:53:10.573Z,2.30
2019-05-18T08:55:37.825Z,2.12
2019-05-18T08:58:05.267Z,1.95
2019-05-18T09:00:32.842Z,2.00
2019-05-18T09:03:00.339Z,2.33
2019-05-18T09:05:29.512Z,2.20
2019-05-18T09:07:57.224Z,2.00
2019-05-18T09:10:24.522Z,1.90
2019-05-18T09:12:51.985Z,2.00
2019-05-18T09:15:19.392Z,2.05
2019-05-18T09:17:46.587Z,2.20
2019-05-18T09:20:14.175Z,2.33
2019-05-18T09:22:41.559Z,1.87
2019-05-18T09:25:09.795Z,2.00
2019-05-18T09:27:37.411Z,1.98
2019-05-18T09:30:05.861Z,2.10
2019-05-18T09:32:33.332Z,2.00
2019-05-18T09:35:01.138Z,2.30
2019-05-18T09:37:28.438Z,2.40
2019-05-18T09:39:56.100Z,4.45
2019-05-18T09:42:23.474Z,2.08
2019-05-18T09:44:50.711Z,2.27
2019-05-18T09:47:18.536Z,5.87
2019-05-18T09:49:45.965Z,4.03
2019-05-18T09:52:13.668Z,2.50
2019-05-18T09:54:41.507Z,2.98
2019-05-18T09:57:09.188Z,2.50
2019-05-18T09:59:36.536Z,3.30
2019-05-18T10:02:03.909Z,3.70
2019-05-18T10:04:31.373Z,3.63
2019-05-18T10:06:59.760Z,4.17
2019-05-18T10:09:36.978Z,4.37
2019-05-18T10:11:56.618Z,3.73
2019-05-18T10:14:44.098Z,4.00
2019-05-18T10:17:11.478Z,3.93
2019-05-18T10:19:38.966Z,3.00
2019-05-18T10:22:06.254Z,2.77
2019-05-18T10:24:33.676Z,3.40
2019-05-18T10:27:02.019Z,3.83
2019-05-18T10:29:30.019Z,4.10
2019-05-18T10:31:57.975Z,3.77
2019-05-18T10:34:25.250Z,3.73
2019-05-18T10:36:52.471Z,3.30
2019-05-18T10:39:19.688Z,3.77
2019-05-18T10:41:46.990Z,3.57
2019-05-18T10:44:14.236Z,3.50
2019-05-18T10:46:41.581Z,3.67
2019-05-18T10:49:09.156Z,3.50
2019-05-18T10:51:36.471Z,3.30
2019-05-18T10:54:03.743Z,3.43
2019-05-18T10:56:31.756Z,3.67
2019-05-18T10:58:59.136Z,3.50
2019-05-18T11:01:28.587Z,3.53
2019-05-18T11:03:56.110Z,4.10
2019-05-18T11:06:23.459Z,2.70
2019-05-18T11:09:20.761Z,2.97
2019-05-18T11:11:57.891Z,3.37
2019-05-18T11:14:28.099Z,2.80
2019-05-18T11:16:55.344Z,3.27
2019-05-18T11:19:22.634Z,3.17
2019-05-18T11:21:50.947Z,3.20
2019-05-18T11:24:18.302Z,3.33
2019-05-18T11:26:45.921Z,2.70
2019-05-18T11:29:13.171Z,3.40
2019-05-18T11:31:41.822Z,3.40
2019-05-18T11:34:09.056Z,3.77
2019-05-18T11:36:36.614Z,3.90
2019-05-18T11:39:05.927Z,3.60
2019-05-18T11:41:33.589Z,3.30
2019-05-18T11:44:01.251Z,2.90
2019-05-18T11:46:29.836Z,3.37
2019-05-18T11:48:58.602Z,3.40
2019-05-18T11:51:25.944Z,4.03
2019-05-18T11:53:58.384Z,3.30
2019-05-18T11:56:22.394Z,2.73
2019-05-18T11:58:49.700Z,3.13
2019-05-18T12:01:16.965Z,3.10
2019-05-18T12:03:44.169Z,3.00
2019-05-18T12:06:11.472Z,3.80
2019-05-18T12:08:38.703Z,3.80
2019-05-18T12:11:05.948Z,3.53
2019-05-18T12:13:36.356Z,2.90
2019-05-18T12:16:03.880Z,2.80
2019-05-18T12:18:31.269Z,3.27
2019-05-18T12:20:58.679Z,2.80
2019-05-18T12:23:25.891Z,3.03
2019-05-18T12:25:53.811Z,3.30
2019-05-18T12:28:21.056Z,2.93
2019-05-18T12:30:48.568Z,2.90
2019-05-18T12:33:34.395Z,3.30
2019-05-18T12:36:01.690Z,3.57
2019-05-18T12:38:31.243Z,3.63
2019-05-18T12:40:59.000Z,3.13
2019-05-18T12:43:26.413Z,4.70
2019-05-18T12:45:54.162Z,2.73
2019-05-18T12:48:21.978Z,2.40
2019-05-18T12:50:49.237Z,2.47
2019-05-18T12:53:17.797Z,2.27
2019-05-18T12:55:45.364Z,2.70
2019-05-18T12:58:12.778Z,2.60
2019-05-18T13:00:40.379Z,3.00
2019-05-18T13:03:07.580Z,3.10
2019-05-18T13:05:35.931Z,3.17
2019-05-18T13:08:03.300Z,2.93
2019-05-18T13:10:30.552Z,3.57
2019-05-18T13:12:58.446Z,3.50
2019-05-18T13:15:26.638Z,3.80
2019-05-18T13:17:53.852Z,3.03
2019-05-18T13:20:21.290Z,3.83
2019-05-18T13:22:48.573Z,3.53
2019-05-18T13:25:16.965Z,3.77
2019-05-18T13:27:44.714Z,2.90
2019-05-18T13:30:12.973Z,3.07
2019-05-18T13:32:40.221Z,3.13
2019-05-18T13:35:08.198Z,2.87
2019-05-18T13:37:36.259Z,3.10
2019-05-18T13:40:03.946Z,2.80
2019-05-18T13:42:31.346Z,2.27
2019-05-18T13:44:58.434Z,2.53
2019-05-18T13:47:25.684Z,2.30
2019-05-18T13:49:53.244Z,2.30
2019-05-18T13:52:20.485Z,2.63
2019-05-18T13:55:02.163Z,2.13
2019-05-18T13:57:16.974Z,2.57
2019-05-18T13:59:44.204Z,2.17
2019-05-18T14:02:12.395Z,2.40
2019-05-18T14:04:39.855Z,2.37
2019-05-18T14:07:07.104Z,2.00
2019-05-18T14:09:34.946Z,2.00
2019-05-18T14:12:02.221Z,2.27
2019-05-18T14:14:29.491Z,2.50
2019-05-18T14:16:57.289Z,2.37
2019-05-18T14:19:25.285Z,2.07
2019-05-18T14:21:52.745Z,2.03
2019-05-18T14:24:20.265Z,2.30
2019-05-18T14:26:48.627Z,2.03
2019-05-18T14:29:16.004Z,1.90
2019-05-18T14:31:43.675Z,2.07
2019-05-18T14:34:11.019Z,2.00
2019-05-18T14:36:38.362Z,1.97
2019-05-18T14:39:05.779Z,1.90
2019-05-18T14:41:33.062Z,1.97
2019-05-18T14:44:00.375Z,2.53
2019-05-18T14:46:27.638Z,3.80
2019-05-18T14:48:55.924Z,2.53
2019-05-18T14:51:23.329Z,2.07
2019-05-18T14:53:53.270Z,2.00
2019-05-18T14:56:20.914Z,2.10
2019-05-18T14:58:48.433Z,2.43
2019-05-18T15:01:15.712Z,2.50
2019-05-18T15:03:44.114Z,2.33
2019-05-18T15:06:11.498Z,2.30
2019-05-18T15:08:38.810Z,2.07
2019-05-18T15:11:06.149Z,2.50
2019-05-18T15:13:33.349Z,2.60
2019-05-18T15:16:00.718Z,2.80
2019-05-18T15:18:28.524Z,2.47
2019-05-18T15:20:57.710Z,2.03
2019-05-18T15:23:25.146Z,2.67
2019-05-18T15:25:52.496Z,2.60
2019-05-18T15:28:19.793Z,2.40
2019-05-18T15:30:47.047Z,2.63
2019-05-18T15:33:14.382Z,2.50
2019-05-18T15:35:42.100Z,4.90
2019-05-18T15:38:09.826Z,3.10
2019-05-18T15:40:37.564Z,3.23
2019-05-18T15:43:05.280Z,3.17
2019-05-18T15:45:33.086Z,2.83
2019-05-18T15:48:00.472Z,3.00
2019-05-18T15:50:27.756Z,2.90
2019-05-18T15:52:55.011Z,3.13
2019-05-18T15:55:24.160Z,2.93
2019-05-18T15:57:51.593Z,3.70
2019-05-18T16:00:19.976Z,3.43
2019-05-18T16:02:48.166Z,2.87
2019-05-18T16:05:18.862Z,2.67
2019-05-18T16:07:46.143Z,2.87
2019-05-18T16:10:13.913Z,2.77
2019-05-18T16:12:41.225Z,3.10
2019-05-18T16:15:09.043Z,2.87
2019-05-18T16:17:39.309Z,2.83
2019-05-18T16:20:06.057Z,3.10
2019-05-18T16:22:33.436Z,2.70
2019-05-18T16:25:04.540Z,3.23
2019-05-18T16:27:31.872Z,3.10
2019-05-18T16:30:00.968Z,2.93
2019-05-18T16:32:31.392Z,2.90
2019-05-18T16:35:00.307Z,2.90
2019-05-18T16:37:29.093Z,2.63
2019-05-18T16:39:56.536Z,3.20
2019-05-18T16:42:25.158Z,2.63
2019-05-18T16:44:52.893Z,3.67
2019-05-18T16:47:21.542Z,3.90
2019-05-18T16:49:48.843Z,3.67
2019-05-18T16:52:16.152Z,4.00
2019-05-18T16:54:45.244Z,3.77
2019-05-18T16:57:13.410Z,3.27
2019-05-18T16:59:40.864Z,3.53
2019-05-18T17:02:08.243Z,4.60
2019-05-18T17:04:37.967Z,3.77
2019-05-18T17:07:07.711Z,4.03
2019-05-18T17:09:36.406Z,3.40
2019-05-18T17:12:06.091Z,3.07
2019-05-18T17:14:34.326Z,3.03
2019-05-18T17:17:02.877Z,3.33
2019-05-18T17:19:30.229Z,3.43
2019-05-18T17:21:57.673Z,3.80
2019-05-18T17:24:25.407Z,3.63
2019-05-18T17:26:53.595Z,3.40
2019-05-18T17:29:20.993Z,3.40
2019-05-18T17:31:48.334Z,2.63
2019-05-18T17:34:16.275Z,2.90
2019-05-18T17:36:43.822Z,2.60
2019-05-18T17:39:12.507Z,2.30
2019-05-18T17:41:39.825Z,2.77
2019-05-18T17:44:07.053Z,2.30
2019-05-18T17:46:34.403Z,2.43
2019-05-18T17:49:01.705Z,3.10
2019-05-18T17:51:30.278Z,2.77
2019-05-18T17:53:57.698Z,3.17
2019-05-18T17:56:24.949Z,2.53
2019-05-18T17:58:53.865Z,3.17
2019-05-18T18:01:21.166Z,2.93
2019-05-18T18:03:48.593Z,2.50
2019-05-18T18:06:17.034Z,2.20
2019-05-18T18:08:48.636Z,3.70
2019-05-18T18:11:16.165Z,2.90
2019-05-18T18:13:43.723Z,2.17
2019-05-18T18:16:10.970Z,2.10
2019-05-18T18:18:38.185Z,2.67
2019-05-18T18:21:05.342Z,3.07
2019-05-18T18:23:32.719Z,3.27
2019-05-18T18:26:00.814Z,3.07
2019-05-18T18:28:29.220Z,3.57
2019-05-18T18:30:57.455Z,3.37
2019-05-18T18:33:24.907Z,3.13
2019-05-18T18:35:52.172Z,3.20
2019-05-18T18:38:19.435Z,2.93
2019-05-18T18:40:46.697Z,4.60
2019-05-18T18:43:13.928Z,2.73
2019-05-18T18:45:42.075Z,3.37
2019-05-18T18:48:09.458Z,2.97
2019-05-18T18:50:36.705Z,2.27
2019-05-18T18:53:04.032Z,2.60
2019-05-18T18:55:31.297Z,1.97
2019-05-18T18:57:58.802Z,3.17
2019-05-18T19:00:26.073Z,2.50
2019-05-18T19:02:53.609Z,2.07
2019-05-18T19:05:21.193Z,2.43
2019-05-18T19:07:54.337Z,4.20
2019-05-18T19:10:25.119Z,4.30
2019-05-18T19:12:59.420Z,4.00
2019-05-18T19:15:27.283Z,2.33
2019-05-18T19:17:54.954Z,2.00
2019-05-18T19:20:22.581Z,2.00
2019-05-18T19:22:50.704Z,2.20
2019-05-18T19:25:18.138Z,1.83
2019-05-18T19:27:54.610Z,1.77
2019-05-18T19:30:17.674Z,1.80
2019-05-18T19:32:45.005Z,1.80
2019-05-18T19:35:13.070Z,2.50
2019-05-18T19:37:40.425Z,1.77
2019-05-18T19:40:08.523Z,2.07
2019-05-18T19:42:36.272Z,2.50
2019-05-18T19:45:04.578Z,2.27
2019-05-18T19:47:34.649Z,2.33
2019-05-18T19:50:03.727Z,2.40
2019-05-18T19:52:31.448Z,2.10
2019-05-18T19:54:58.829Z,2.30
2019-05-18T19:57:27.699Z,2.80
2019-05-18T19:59:54.995Z,2.70
2019-05-18T20:02:22.313Z,3.40
2019-05-18T20:05:06.820Z,2.83
2019-05-18T20:07:19.221Z,3.63
2019-05-18T20:09:46.550Z,3.47
2019-05-18T20:12:17.590Z,3.53
2019-05-18T20:14:44.903Z,3.40
2019-05-18T20:17:14.774Z,2.60
2019-05-18T20:19:42.443Z,3.17
2019-05-18T20:22:10.133Z,3.10
2019-05-18T20:24:38.055Z,3.03
2019-05-18T20:27:05.459Z,2.93
2019-05-18T20:29:33.405Z,4.00
2019-05-18T20:32:01.025Z,3.67
2019-05-18T20:34:28.443Z,2.47
2019-05-18T20:36:55.629Z,2.73
2019-05-18T20:39:22.985Z,2.80
2019-05-18T20:41:50.753Z,3.03
2019-05-18T20:44:18.054Z,2.67
2019-05-18T20:47:01.718Z,3.00
2019-05-18T20:49:32.458Z,3.30
2019-05-18T20:51:59.708Z,3.77
2019-05-18T20:54:27.146Z,2.70
2019-05-18T20:56:55.781Z,3.30
2019-05-18T20:59:23.207Z,3.30
2019-05-18T21:01:51.167Z,3.40
2019-05-18T21:04:18.508Z,3.63
2019-05-18T21:06:45.907Z,3.70
2019-05-18T21:09:13.985Z,3.20
2019-05-18T21:11:41.403Z,3.43
2019-05-18T21:14:09.354Z,3.57
2019-05-18T21:16:37.644Z,3.37
2019-05-18T21:19:05.016Z,3.37
2019-05-18T21:21:32.391Z,3.60
2019-05-18T21:23:59.820Z,2.73
2019-05-18T21:26:27.032Z,2.93
2019-05-18T21:28:59.339Z,3.17
2019-05-18T21:31:23.689Z,3.33
2019-05-18T21:33:51.395Z,3.00
2019-05-18T21:36:18.635Z,3.23
2019-05-18T21:38:45.859Z,3.07
2019-05-18T21:41:13.147Z,3.20
2019-05-18T21:43:40.456Z,3.37
2019-05-18T21:46:08.173Z,3.20
2019-05-18T21:48:37.542Z,3.43
2019-05-18T21:51:04.839Z,3.23
2019-05-18T21:53:33.013Z,2.93
2019-05-18T21:56:00.309Z,3.73
2019-05-18T21:58:27.822Z,3.67
2019-05-18T22:00:55.292Z,3.70
2019-05-18T22:03:22.483Z,4.20
2019-05-18T22:05:50.690Z,3.93
2019-05-18T22:08:20.199Z,4.57
2019-05-18T22:10:47.442Z,3.70
2019-05-18T22:13:14.720Z,4.37
2019-05-18T22:15:42.718Z,5.00
2019-05-18T22:18:23.721Z,5.07
2019-05-18T22:20:44.072Z,4.57
2019-05-18T22:23:09.349Z,4.50
2019-05-18T22:25:36.677Z,4.03
2019-05-18T22:28:04.630Z,4.13
2019-05-18T22:30:32.907Z,3.93
2019-05-18T22:33:00.205Z,3.67
2019-05-18T22:35:27.549Z,3.90
2019-05-18T22:37:54.886Z,3.90
2019-05-18T22:40:22.146Z,4.00
2019-05-18T22:42:49.413Z,3.70
2019-05-18T22:45:16.666Z,3.83
2019-05-18T22:47:44.068Z,3.00
2019-05-18T22:50:11.553Z,3.60
2019-05-18T22:52:39.764Z,3.43
2019-05-18T22:55:07.595Z,3.10
2019-05-18T22:57:37.591Z,3.53
2019-05-18T23:00:05.949Z,3.13
2019-05-18T23:02:35.140Z,3.47
2019-05-18T23:05:03.347Z,3.90
2019-05-18T23:07:31.856Z,3.57
2019-05-18T23:10:00.763Z,3.53
2019-05-18T23:12:28.446Z,3.60
2019-05-18T23:14:56.099Z,3.33
2019-05-18T23:17:24.466Z,2.70
2019-05-18T23:19:52.780Z,3.63
2019-05-18T23:22:20.068Z,3.30
2019-05-18T23:24:47.322Z,3.20
2019-05-18T23:27:19.226Z,3.67
2019-05-18T23:29:50.183Z,3.90
2019-05-18T23:32:18.152Z,4.70
2019-05-18T23:34:45.417Z,4.50
2019-05-18T23:37:13.654Z,5.03
2019-05-18T23:39:42.705Z,5.63
2019-05-18T23:42:10.684Z,5.90
2019-05-18T23:44:39.509Z,5.97
2019-05-18T23:47:07.796Z,6.27
2019-05-18T23:49:35.522Z,6.30
2019-05-18T23:52:05.059Z,6.40
2019-05-18T23:54:32.166Z,7.03
2019-05-18T23:57:00.127Z,6.80
2019-05-18T23:59:28.040Z,6.43
